Time;durP1;ratioP1;P1;durP2;ratioP2;P2;SDS_P1;SDS_P2;PMS_P1;PMS_P2;Temp;Humidity;BMP_temperature;BMP_pressure;BME280_temperature;BME280_humidity;BME280_pressure;Samples;Min_cycle;Max_cycle;Signal;HPM_P1;HPM_P2
2023/10/08 00:00:39;;;;;;;;;;;;;;;16.61;41.12;99931.69;3157723;28;19930;-65
2023/10/08 00:02:11;;;;;;;;;;;;;;;16.60;40.89;99932.63;3160927;28;20411;-65
2023/10/08 00:03:48;;;;;;;;;;;;;;;16.60;41.14;99935.25;3169977;28;20015;-64
2023/10/08 00:05:19;;;;;;;;;;;;;;;16.58;41.15;99931.88;3170053;28;20315;-65
2023/10/08 00:06:52;;;;;;;;;;;;;;;16.59;40.99;99935.34;3169847;28;19923;-64
2023/10/08 00:08:23;;;;;;;;;;;;;;;16.60;40.92;99935.25;3169887;28;19928;-64
2023/10/08 00:09:56;;;;;;;;;;;;;;;16.59;41.11;99935.34;3168564;28;19936;-64
2023/10/08 00:11:29;;;;;;;;;;;;;;;16.59;41.17;99924.84;3157615;28;19985;-64
2023/10/08 00:13:00;;;;;;;;;;;;;;;16.61;40.91;99928.22;3170055;28;19951;-64
2023/10/08 00:14:32;;;;;;;;;;;;;;;16.61;40.92;99923.78;3170055;28;19927;-63
2023/10/08 00:16:09;;;;;;;;;;;;;;;16.63;40.93;99922.88;3169950;28;20316;-63
2023/10/08 00:17:41;;;;;;;;;;;;;;;16.63;40.95;99917.59;3169912;28;19928;-64
2023/10/08 00:19:14;;;;;;;;;;;;;;;16.65;41.06;99916.53;3170308;28;20400;-65
2023/10/08 00:20:54;;;;;;;;;;;;;;;16.66;40.87;99912.13;3169825;28;19924;-65
2023/10/08 00:22:26;;;;;;;;;;;;;;;16.66;40.98;99907.72;3170091;28;19993;-65
2023/10/08 00:23:58;;;;;;;;;;;;;;;16.67;40.62;99903.28;3160528;28;20031;-64
2023/10/08 00:25:30;;;;;;;;;;;;;;;16.66;40.82;99904.25;3159615;28;19935;-66
2023/10/08 00:27:06;;;;;;;;;;;;;;;16.64;40.83;99904.34;3165078;28;19984;-65
2023/10/08 00:28:39;;;;;;;;;;;;;;;16.63;40.77;99904.47;3170016;28;20506;-64
2023/10/08 00:30:17;;;;;;;;;;;;;;;16.59;41.17;99906.44;3169650;28;19934;-64
2023/10/08 00:31:49;;;;;;;;;;;;;;;16.59;41.01;99899.41;3170143;28;19927;-65
2023/10/08 00:33:20;;;;;;;;;;;;;;;16.58;41.01;99908.22;3170120;28;19931;-64
2023/10/08 00:34:51;;;;;;;;;;;;;;;16.55;41.01;99903.19;3169802;28;19924;-65
2023/10/08 00:36:23;;;;;;;;;;;;;;;16.51;41.09;99904.34;3169946;28;19993;-64
2023/10/08 00:38:00;;;;;;;;;;;;;;;16.51;41.00;99901.72;3170075;28;19924;-64
2023/10/08 00:39:34;;;;;;;;;;;;;;;16.47;41.24;99900.22;3169431;28;20350;-65
2023/10/08 00:41:06;;;;;;;;;;;;;;;16.46;41.14;99901.19;3169832;28;19924;-64
2023/10/08 00:42:45;;;;;;;;;;;;;;;16.45;41.27;99899.50;3169678;28;20325;-65
2023/10/08 00:44:22;;;;;;;;;;;;;;;16.43;41.46;99901.38;3169423;28;19975;-64
2023/10/08 00:45:54;;;;;;;;;;;;;;;16.46;41.13;99902.97;3170111;28;19932;-64
2023/10/08 00:47:27;;;;;;;;;;;;;;;16.49;40.97;99902.75;3169670;28;20010;-64
2023/10/08 00:49:11;;;;;;;;;;;;;;;16.49;41.16;99910.66;3169999;28;20385;-63
2023/10/08 00:50:44;;;;;;;;;;;;;;;16.48;41.05;99899.31;3168324;28;19931;-65
2023/10/08 00:52:29;;;;;;;;;;;;;;;16.48;41.02;99904.56;3159393;28;19970;-65
2023/10/08 00:54:05;;;;;;;;;;;;;;;16.48;40.93;99907.19;3164620;28;20119;-65
2023/10/08 00:55:37;;;;;;;;;;;;;;;16.47;41.01;99902.84;3168313;28;20018;-64
2023/10/08 00:57:10;;;;;;;;;;;;;;;16.48;41.04;99901.09;3169794;28;19971;-64
2023/10/08 00:58:46;;;;;;;;;;;;;;;16.46;41.29;99897.72;3169597;28;19928;-65
2023/10/08 01:00:21;;;;;;;;;;;;;;;16.42;41.41;99894.47;3169896;28;20343;-65
2023/10/08 01:01:59;;;;;;;;;;;;;;;16.40;41.28;99893.72;3169703;28;19931;-65
2023/10/08 01:03:35;;;;;;;;;;;;;;;16.39;41.35;99899.94;3169974;28;20028;-65
2023/10/08 01:05:09;;;;;;;;;;;;;;;16.40;41.10;99898.13;3170940;28;19968;-65
2023/10/08 01:06:41;;;;;;;;;;;;;;;16.41;41.42;99895.38;3171249;28;20423;-64
2023/10/08 01:08:22;;;;;;;;;;;;;;;16.43;41.27;99892.66;3172332;28;20341;-64
2023/10/08 01:09:58;;;;;;;;;;;;;;;16.43;41.25;99892.66;3171452;28;19928;-65
2023/10/08 01:11:40;;;;;;;;;;;;;;;16.42;41.42;99893.63;3172025;28;19931;-65
2023/10/08 01:13:15;;;;;;;;;;;;;;;16.42;41.16;99897.09;3171985;28;19927;-64
2023/10/08 01:14:50;;;;;;;;;;;;;;;16.38;41.29;99882.44;3171995;28;20482;-64
2023/10/08 01:16:20;;;;;;;;;;;;;;;16.41;41.34;99895.38;3171635;28;19974;-64
2023/10/08 01:17:58;;;;;;;;;;;;;;;16.42;41.56;99881.31;3171939;28;20011;-64
2023/10/08 01:19:28;;;;;;;;;;;;;;;16.42;41.43;99881.31;3172145;28;19924;-64
2023/10/08 01:21:10;;;;;;;;;;;;;;;16.43;41.47;99880.38;3171865;28;20140;-64
2023/10/08 01:22:42;;;;;;;;;;;;;;;16.44;41.48;99871.53;3163054;28;19975;-65
2023/10/08 01:24:17;;;;;;;;;;;;;;;16.48;41.28;99880.06;3171988;28;20355;-65
2023/10/08 01:25:50;;;;;;;;;;;;;;;16.47;41.53;99879.19;3171868;28;20018;-64
2023/10/08 01:27:24;;;;;;;;;;;;;;;16.45;41.35;99873.22;3166931;28;19924;-66
2023/10/08 01:28:54;;;;;;;;;;;;;;;16.43;41.63;99882.16;3168230;28;19976;-64
2023/10/08 01:30:26;;;;;;;;;;;;;;;16.38;41.83;99869.31;3168402;28;20003;-64
2023/10/08 01:31:57;;;;;;;;;;;;;;;16.34;41.63;99876.56;3171635;28;19924;-64
2023/10/08 01:33:30;;;;;;;;;;;;;;;16.30;41.88;99874.28;3171881;28;19979;-64
2023/10/08 01:35:00;;;;;;;;;;;;;;;16.27;41.80;99874.47;3171824;28;19924;-64
2023/10/08 01:36:36;;;;;;;;;;;;;;;16.23;42.19;99876.44;3171418;28;20421;-64
2023/10/08 01:38:13;;;;;;;;;;;;;;;16.18;42.08;99872.44;3171955;28;20289;-65
2023/10/08 01:39:45;;;;;;;;;;;;;;;16.12;42.09;99866.69;3169043;28;19923;-64
2023/10/08 01:41:18;;;;;;;;;;;;;;;16.07;42.33;99873.19;3171153;28;20424;-64
2023/10/08 01:42:52;;;;;;;;;;;;;;;16.01;42.39;99863.09;3171814;28;19931;-64
2023/10/08 01:44:24;;;;;;;;;;;;;;;15.96;42.79;99875.69;3166531;28;20266;-64
2023/10/08 01:45:55;;;;;;;;;;;;;;;15.90;42.80;99862.00;3163895;28;19923;-64
2023/10/08 01:47:29;;;;;;;;;;;;;;;15.88;42.79;99863.03;3171366;28;20466;-64
2023/10/08 01:49:04;;;;;;;;;;;;;;;15.85;42.73;99865.88;3170390;28;19923;-65
2023/10/08 01:50:36;;;;;;;;;;;;;;;15.82;42.91;99859.03;3162486;28;19931;-65
2023/10/08 01:52:13;;;;;;;;;;;;;;;15.76;43.04;99848.94;3171329;28;19928;-65
2023/10/08 01:53:47;;;;;;;;;;;;;;;15.75;43.05;99851.69;3171560;27;19943;-65
2023/10/08 01:55:18;;;;;;;;;;;;;;;15.73;43.21;99849.13;3171093;28;19959;-66
2023/10/08 01:56:50;;;;;;;;;;;;;;;15.74;43.10;99852.63;3170572;28;19931;-66
2023/10/08 01:58:22;;;;;;;;;;;;;;;15.76;43.09;99843.69;3164864;28;19924;-66
2023/10/08 01:59:54;;;;;;;;;;;;;;;15.77;42.99;99839.28;3161396;28;20302;-65
2023/10/08 02:01:24;;;;;;;;;;;;;;;15.75;42.96;99841.16;3171653;28;19974;-66
2023/10/08 02:02:58;;;;;;;;;;;;;;;15.73;43.23;99837.78;3171098;28;20472;-66
2023/10/08 02:04:30;;;;;;;;;;;;;;;15.73;43.02;99837.78;3171443;28;19928;-66
2023/10/08 02:06:05;;;;;;;;;;;;;;;15.75;43.30;99835.91;3171212;28;20357;-66
2023/10/08 02:07:37;;;;;;;;;;;;;;;15.78;42.87;99840.97;3171649;28;20010;-66
2023/10/08 02:09:13;;;;;;;;;;;;;;;15.82;42.89;99831.94;3171019;28;19923;-66
2023/10/08 02:10:46;;;;;;;;;;;;;;;15.84;42.76;99838.78;3171218;28;19924;-65
2023/10/08 02:12:18;;;;;;;;;;;;;;;15.87;42.84;99841.19;3171202;28;20340;-65
2023/10/08 02:13:50;;;;;;;;;;;;;;;15.91;42.60;99836.56;3171311;28;20362;-66
2023/10/08 02:15:23;;;;;;;;;;;;;;;15.95;42.64;99843.31;3170827;28;19931;-66
2023/10/08 02:16:56;;;;;;;;;;;;;;;15.98;42.48;99837.88;3170631;28;20377;-65
2023/10/08 02:18:29;;;;;;;;;;;;;;;16.00;42.65;99835.97;3171393;28;19928;-65
2023/10/08 02:19:59;;;;;;;;;;;;;;;16.03;42.53;99832.28;3171024;28;19934;-63
2023/10/08 02:21:33;;;;;;;;;;;;;;;16.08;42.69;99838.06;3171035;28;19924;-64
2023/10/08 02:23:05;;;;;;;;;;;;;;;16.13;42.29;99831.56;3171354;28;19923;-64
2023/10/08 02:24:37;;;;;;;;;;;;;;;16.20;42.37;99832.00;3171179;28;19971;-64
2023/10/08 02:26:08;;;;;;;;;;;;;;;16.23;42.03;99830.94;3170772;28;20006;-64
2023/10/08 02:27:41;;;;;;;;;;;;;;;16.26;42.05;99828.94;3165866;28;20033;-64
2023/10/08 02:29:12;;;;;;;;;;;;;;;16.30;41.86;99827.81;3159968;28;20450;-64
2023/10/08 02:30:43;;;;;;;;;;;;;;;16.35;41.82;99833.56;3171226;28;19928;-64
2023/10/08 02:32:14;;;;;;;;;;;;;;;16.37;41.71;99830.84;3171204;28;20393;-64
2023/10/08 02:33:45;;;;;;;;;;;;;;;16.43;41.79;99826.97;3171306;28;20054;-64
2023/10/08 02:35:18;;;;;;;;;;;;;;;16.46;41.51;99819.69;3171146;28;19931;-64
2023/10/08 02:36:50;;;;;;;;;;;;;;;16.49;41.60;99822.09;3171317;27;19928;-64
2023/10/08 02:38:21;;;;;;;;;;;;;;;16.54;41.35;99821.81;3170962;28;19979;-65
2023/10/08 02:39:54;;;;;;;;;;;;;;;16.57;41.29;99822.44;3171075;28;19930;-64
2023/10/08 02:41:24;;;;;;;;;;;;;;;16.60;40.94;99827.47;3170820;28;20327;-65
2023/10/08 02:42:58;;;;;;;;;;;;;;;16.61;41.07;99820.41;3171149;28;20010;-64
2023/10/08 02:44:28;;;;;;;;;;;;;;;16.64;40.88;99819.38;3169784;28;19931;-64
2023/10/08 02:46:00;;;;;;;;;;;;;;;16.63;40.99;99818.53;3170618;28;20324;-65
2023/10/08 02:47:31;;;;;;;;;;;;;;;16.65;40.75;99818.41;3170905;28;20007;-65
2023/10/08 02:49:04;;;;;;;;;;;;;;;16.64;40.99;99814.94;3169371;28;20522;-65
2023/10/08 02:50:35;;;;;;;;;;;;;;;16.64;41.00;99817.56;3164059;28;19927;-65
2023/10/08 02:52:08;;;;;;;;;;;;;;;16.67;40.88;99817.34;3170842;28;19924;-64
2023/10/08 02:53:41;;;;;;;;;;;;;;;16.69;40.68;99807.59;3170758;28;20022;-65
2023/10/08 02:55:25;;;;;;;;;;;;;;;16.68;41.04;99813.78;3170718;28;20072;-65
2023/10/08 02:56:58;;;;;;;;;;;;;;;16.68;41.02;99810.31;3164967;28;20101;-64
2023/10/08 02:58:33;;;;;;;;;;;;;;;16.67;40.86;99809.47;3158616;28;19924;-64
2023/10/08 03:00:12;;;;;;;;;;;;;;;16.69;41.05;99815.47;3158454;28;20416;-65
2023/10/08 03:01:44;;;;;;;;;;;;;;;16.71;40.83;99813.59;3158585;28;19959;-63
2023/10/08 03:03:15;;;;;;;;;;;;;;;16.72;40.73;99814.41;3170912;28;19934;-63
2023/10/08 03:04:47;;;;;;;;;;;;;;;16.71;40.75;99812.72;3170249;28;20384;-63
2023/10/08 03:06:18;;;;;;;;;;;;;;;16.72;40.77;99817.03;3170530;28;19927;-63
2023/10/08 03:07:51;;;;;;;;;;;;;;;16.71;40.75;99815.34;3170814;28;19924;-63
2023/10/08 03:09:23;;;;;;;;;;;;;;;16.71;40.78;99810.94;3170349;28;20038;-62
2023/10/08 03:10:57;;;;;;;;;;;;;;;16.72;40.91;99814.41;3161512;28;19950;-63
2023/10/08 03:12:31;;;;;;;;;;;;;;;16.72;40.63;99820.50;3169499;28;20297;-63
2023/10/08 03:14:03;;;;;;;;;;;;;;;16.72;40.70;99817.03;3170675;28;19935;-63
2023/10/08 03:15:46;;;;;;;;;;;;;;;16.73;40.46;99802.94;3170522;28;19943;-63
2023/10/08 03:17:20;;;;;;;;;;;;;;;16.74;40.60;99808.09;3170535;28;19963;-63
2023/10/08 03:18:50;;;;;;;;;;;;;;;16.79;40.44;99802.53;3170365;28;19978;-63
2023/10/08 03:20:38;;;;;;;;;;;;;;;16.82;40.20;99807.56;3170650;28;19924;-63
2023/10/08 03:22:10;;;;;;;;;;;;;;;16.86;40.10;99802.94;3170411;28;20010;-63
2023/10/08 03:23:47;;;;;;;;;;;;;;;16.89;40.13;99805.34;3170286;28;19973;-63
2023/10/08 03:25:20;;;;;;;;;;;;;;;16.93;39.91;99807.66;3170470;28;19962;-63
2023/10/08 03:27:05;;;;;;;;;;;;;;;16.99;39.51;99796.69;3168121;28;19940;-63
2023/10/08 03:28:37;;;;;;;;;;;;;;;17.06;39.46;99800.56;3166011;28;19924;-62
2023/10/08 03:30:14;;;;;;;;;;;;;;;17.10;39.25;99803.00;3165812;28;19924;-62
2023/10/08 03:31:49;;;;;;;;;;;;;;;17.14;39.13;99797.38;3170406;28;19930;-62
2023/10/08 03:33:23;;;;;;;;;;;;;;;17.19;38.97;99797.06;3170525;28;19924;-62
2023/10/08 03:34:55;;;;;;;;;;;;;;;17.21;38.92;99798.59;3170650;28;19931;-62
2023/10/08 03:36:34;;;;;;;;;;;;;;;17.24;38.87;99803.66;3170080;28;19931;-62
2023/10/08 03:38:21;;;;;;;;;;;;;;;17.19;38.82;99790.00;3170043;28;19931;-62
2023/10/08 03:40:00;;;;;;;;;;;;;;;17.29;38.60;99806.78;3170382;28;19930;-61
2023/10/08 03:41:32;;;;;;;;;;;;;;;17.31;38.60;99803.22;3170035;28;19995;-62
2023/10/08 03:43:14;;;;;;;;;;;;;;;17.30;38.55;99802.34;3170409;28;20014;-62
2023/10/08 03:44:50;;;;;;;;;;;;;;;17.31;38.66;99798.78;3169315;28;19928;-62
2023/10/08 03:46:24;;;;;;;;;;;;;;;17.32;38.51;99797.81;3169719;28;20313;-62
2023/10/08 03:48:05;;;;;;;;;;;;;;;17.33;38.63;99796.88;3170150;28;19943;-61
2023/10/08 03:49:44;;;;;;;;;;;;;;;17.34;38.57;99795.09;3168671;28;19924;-64
2023/10/08 03:51:19;;;;;;;;;;;;;;;17.36;38.48;99790.53;3170296;28;19980;-63
2023/10/08 03:52:51;;;;;;;;;;;;;;;17.37;38.37;99798.34;3164073;28;19924;-63
2023/10/08 03:54:29;;;;;;;;;;;;;;;17.38;38.46;99796.53;3163740;28;19935;-67
2023/10/08 03:56:05;;;;;;;;;;;;;;;17.39;38.32;99801.72;3164172;28;19959;-68
2023/10/08 03:57:41;;;;;;;;;;;;;;;17.37;38.20;99787.81;3160218;28;19989;-69
2023/10/08 03:59:20;;;;;;;;;;;;;;;17.40;38.19;99799.91;3161681;28;20698;-69
2023/10/08 04:01:03;;;;;;;;;;;;;;;17.42;38.09;99804.13;3162692;28;19938;-69
2023/10/08 04:02:40;;;;;;;;;;;;;;;17.43;38.24;99803.16;3161251;28;19977;-69
2023/10/08 04:04:14;;;;;;;;;;;;;;;17.43;37.98;99800.53;3160493;28;19935;-71
2023/10/08 04:05:59;;;;;;;;;;;;;;;17.42;38.10;99800.63;3169622;28;19931;-72
2023/10/08 04:07:39;;;;;;;;;;;;;;;17.43;38.30;99800.53;3167628;28;19923;-70
2023/10/08 04:09:16;;;;;;;;;;;;;;;17.42;38.18;99800.63;3164058;28;20019;-73
2023/10/08 04:12:39;;;;;;;;;;;;;;;17.42;38.14;99797.97;3169778;28;20280;-69
2023/10/08 04:14:10;;;;;;;;;;;;;;;17.42;38.27;99801.47;3162904;28;19947;-71
2023/10/08 04:15:43;;;;;;;;;;;;;;;17.40;38.12;99792.84;3160135;28;20320;-70
2023/10/08 04:17:22;;;;;;;;;;;;;;;17.39;38.11;99795.56;3169848;28;19959;-70
2023/10/08 04:18:55;;;;;;;;;;;;;;;17.39;38.16;99792.94;3169136;28;19931;-72
2023/10/08 04:20:38;;;;;;;;;;;;;;;17.38;38.04;99794.75;3162243;28;20438;-69
2023/10/08 04:22:15;;;;;;;;;;;;;;;17.38;38.13;99797.38;3157753;28;19928;-69
2023/10/08 04:23:51;;;;;;;;;;;;;;;17.41;38.07;99801.59;3163452;28;20475;-68
2023/10/08 04:25:22;;;;;;;;;;;;;;;17.43;38.17;99795.25;3167825;28;19935;-67
2023/10/08 04:26:56;;;;;;;;;;;;;;;17.45;38.33;99796.00;3158809;28;19932;-71
2023/10/08 04:28:34;;;;;;;;;;;;;;;17.45;38.35;99800.38;3162871;28;19932;-68
2023/10/08 04:30:10;;;;;;;;;;;;;;;17.45;38.08;99796.00;3169160;28;19924;-68
2023/10/08 04:31:46;;;;;;;;;;;;;;;17.46;38.17;99795.03;3165918;28;19985;-69
2023/10/08 04:33:19;;;;;;;;;;;;;;;17.47;37.72;99799.31;3163679;28;20296;-69
2023/10/08 04:34:52;;;;;;;;;;;;;;;17.46;38.01;99795.03;3169774;28;19947;-70
2023/10/08 04:36:23;;;;;;;;;;;;;;;17.46;37.75;99792.41;3165896;28;19958;-69
2023/10/08 04:37:55;;;;;;;;;;;;;;;17.46;37.86;99800.28;3160060;28;19947;-68
2023/10/08 04:39:31;;;;;;;;;;;;;;;17.46;37.72;99797.66;3163759;28;20315;-67
2023/10/08 04:41:08;;;;;;;;;;;;;;;17.46;37.71;99804.72;3172401;28;19927;-74
2023/10/08 04:42:40;;;;;;;;;;;;;;;17.42;37.67;99792.72;3172289;28;19924;-68
2023/10/08 04:44:14;;;;;;;;;;;;;;;17.41;37.69;99802.41;3168473;28;20026;-72
2023/10/08 04:45:46;;;;;;;;;;;;;;;17.42;37.50;99797.97;3163374;28;19984;-77
2023/10/08 04:47:31;;;;;;;;;;;;;;;17.40;37.52;99799.91;3172201;28;19928;-76
2023/10/08 04:49:07;;;;;;;;;;;;;;;17.40;37.44;99802.53;3172187;28;20019;-70
2023/10/08 04:50:38;;;;;;;;;;;;;;;17.40;37.57;99802.53;3167447;28;19980;-65
2023/10/08 04:52:13;;;;;;;;;;;;;;;17.41;37.42;99809.47;3168279;28;19923;-67
2023/10/08 04:53:47;;;;;;;;;;;;;;;17.41;37.27;99799.78;3162263;28;20341;-70
2023/10/08 04:55:20;;;;;;;;;;;;;;;17.42;37.07;99806.75;3168321;28;20349;-69
2023/10/08 04:56:53;;;;;;;;;;;;;;;17.46;37.27;99807.34;3169785;28;20359;-69
2023/10/08 04:58:33;;;;;;;;;;;;;;;17.49;36.89;99807.97;3171126;28;20006;-68
2023/10/08 05:00:12;;;;;;;;;;;;;;;17.56;36.78;99810.13;3160641;28;19932;-74
2023/10/08 05:01:47;;;;;;;;;;;;;;;17.61;36.96;99803.59;3172215;28;19924;-71
2023/10/08 05:03:22;;;;;;;;;;;;;;;17.67;36.85;99810.19;3172335;28;19923;-68
2023/10/08 05:05:21;;;;;;;;;;;;;;;17.74;36.75;99801.69;3172909;28;19924;-69
2023/10/08 05:07:16;;;;;;;;;;;;;;;17.82;36.60;99797.69;3172185;28;19978;-66
2023/10/08 05:08:55;;;;;;;;;;;;;;;17.88;36.19;99802.50;3172331;28;19950;-71
2023/10/08 05:10:45;;;;;;;;;;;;;;;17.91;36.42;99797.00;3171866;28;19985;-69
2023/10/08 05:12:34;;;;;;;;;;;;;;;17.89;36.22;99789.19;3171994;28;19927;-71
2023/10/08 05:14:06;;;;;;;;;;;;;;;17.96;36.24;99802.78;3163138;28;20023;-72
2023/10/08 05:15:41;;;;;;;;;;;;;;;17.98;36.00;99795.56;3159387;28;19924;-73
2023/10/08 05:17:22;;;;;;;;;;;;;;;17.99;35.94;99796.44;3168547;28;20381;-73
2023/10/08 05:22:44;;;;;;;;;;;;;;;18.08;35.58;99785.19;3160005;28;19931;-72
2023/10/08 05:24:22;;;;;;;;;;;;;;;18.12;35.54;99789.25;3171899;28;19923;-70
2023/10/08 05:25:58;;;;;;;;;;;;;;;18.17;35.31;99792.38;3172267;28;19992;-73
2023/10/08 05:27:56;;;;;;;;;;;;;;;18.22;35.02;99777.06;3176397;28;20007;-73
2023/10/08 05:29:51;;;;;;;;;;;;;;;18.27;35.12;99782.78;3163505;28;19961;-74
2023/10/08 05:31:36;;;;;;;;;;;;;;;18.32;35.04;99779.81;3169343;28;19927;-75
2023/10/08 05:33:23;;;;;;;;;;;;;;;18.35;34.61;99780.41;3166261;28;20072;-74
2023/10/08 05:35:30;;;;;;;;;;;;;;;18.39;34.21;99781.84;3159784;28;19924;-71
2023/10/08 05:37:10;;;;;;;;;;;;;;;18.47;33.96;99783.06;3162289;28;20332;-72
2023/10/08 05:39:00;;;;;;;;;;;;;;;18.52;33.95;99776.47;3165562;28;19923;-73
2023/10/08 05:42:31;;;;;;;;;;;;;;;18.63;33.97;99784.38;3171924;28;20006;-71
2023/10/08 05:46:19;;;;;;;;;;;;;;;18.73;33.96;99781.88;3171873;28;19924;-70
2023/10/08 05:48:08;;;;;;;;;;;;;;;18.79;33.89;99775.28;3171375;28;20419;-72
2023/10/08 05:49:42;;;;;;;;;;;;;;;18.83;33.84;99780.16;3168502;28;19923;-75
2023/10/08 05:51:23;;;;;;;;;;;;;;;18.89;33.61;99780.66;3171158;28;19935;-73
2023/10/08 05:53:15;;;;;;;;;;;;;;;18.95;33.49;99773.06;3171807;28;19924;-71
2023/10/08 05:55:10;;;;;;;;;;;;;;;19.04;33.41;99782.88;3171299;28;19931;-76
2023/10/08 05:57:04;;;;;;;;;;;;;;;19.15;33.29;99784.66;3163676;28;19927;-70
2023/10/08 05:58:45;;;;;;;;;;;;;;;19.27;33.06;99785.47;3167767;28;19923;-69
2023/10/08 06:02:25;;;;;;;;;;;;;;;19.54;32.63;99793.75;3167720;28;20253;-69
2023/10/08 06:04:20;;;;;;;;;;;;;;;19.70;32.47;99785.44;3171314;28;20391;-73
2023/10/08 06:06:07;;;;;;;;;;;;;;;19.87;31.77;99789.28;3171336;28;19924;-69
2023/10/08 06:07:48;;;;;;;;;;;;;;;20.02;31.46;99792.44;3171175;28;19928;-68
2023/10/08 06:09:22;;;;;;;;;;;;;;;20.15;31.26;99789.63;3171387;28;20621;-66
2023/10/08 06:10:57;;;;;;;;;;;;;;;20.27;31.12;99798.31;3171215;28;19927;-69
2023/10/08 06:12:30;;;;;;;;;;;;;;;20.40;31.11;99793.63;3171419;28;20016;-68
2023/10/08 06:14:01;;;;;;;;;;;;;;;20.52;30.98;99791.72;3170586;28;20039;-71
2023/10/08 06:15:44;;;;;;;;;;;;;;;20.65;30.90;99800.31;3171664;28;19966;-73
2023/10/08 06:17:23;;;;;;;;;;;;;;;20.81;31.10;99798.00;3171306;28;20312;-72
2023/10/08 06:18:54;;;;;;;;;;;;;;;20.96;30.98;99802.91;3171175;28;19949;-73
2023/10/08 06:20:28;;;;;;;;;;;;;;;21.19;31.13;99801.72;3171248;28;19924;-74
2023/10/08 06:22:02;;;;;;;;;;;;;;;21.40;31.01;99814.88;3171508;28;19927;-73
2023/10/08 06:23:38;;;;;;;;;;;;;;;21.65;30.87;99808.19;3171281;28;19930;-72
2023/10/08 06:25:23;;;;;;;;;;;;;;;21.95;30.92;99809.81;3171290;28;19994;-70
2023/10/08 06:26:55;;;;;;;;;;;;;;;22.32;30.95;99813.53;3170933;28;19924;-67
2023/10/08 06:28:25;;;;;;;;;;;;;;;;;;3170871;28;19960;-67
2023/10/08 06:29:57;;;;;;;;;;;;;;;22.99;30.42;99804.47;3171067;28;19950;-69
2023/10/08 06:31:31;;;;;;;;;;;;;;;23.31;30.12;99803.16;3170947;28;19948;-67
2023/10/08 06:33:03;;;;;;;;;;;;;;;23.62;29.93;99801.75;3167016;28;19967;-68
2023/10/08 06:34:35;;;;;;;;;;;;;;;23.93;29.77;99789.88;3169182;28;19985;-69
2023/10/08 06:36:13;;;;;;;;;;;;;;;24.23;29.48;99799.25;3166305;28;19924;-72
2023/10/08 06:37:45;;;;;;;;;;;;;;;24.49;29.43;99794.78;3165146;28;19923;-70
2023/10/08 06:39:19;;;;;;;;;;;;;;;24.60;28.86;99796.28;3170949;28;20014;-71
2023/10/08 06:40:52;;;;;;;;;;;;;;;24.74;28.56;99792.19;3170717;28;19928;-73
2023/10/08 06:42:27;;;;;;;;;;;;;;;24.88;28.67;99794.25;3171251;28;20359;-73
2023/10/08 06:44:02;;;;;;;;;;;;;;;25.06;28.31;99796.81;3165557;28;19928;-74
2023/10/08 06:45:36;;;;;;;;;;;;;;;25.23;28.15;99800.38;3161779;28;19931;-73
2023/10/08 06:47:09;;;;;;;;;;;;;;;25.36;27.95;99794.56;3164490;27;19938;-70
2023/10/08 06:48:42;;;;;;;;;;;;;;;25.54;27.66;99800.56;3170950;28;20657;-71
2023/10/08 06:50:15;;;;;;;;;;;;;;;25.88;27.57;99807.59;3170221;28;19928;-76
2023/10/08 06:51:48;;;;;;;;;;;;;;;26.25;27.39;99803.53;3170528;28;19924;-72
2023/10/08 06:53:18;;;;;;;;;;;;;;;26.47;27.13;99805.50;3170711;28;19928;-75
2023/10/08 06:54:53;;;;;;;;;;;;;;;26.76;26.88;99809.41;3170573;28;19924;-71
2023/10/08 06:56:24;;;;;;;;;;;;;;;26.77;26.64;99803.06;3170084;28;20048;-73
2023/10/08 06:57:55;;;;;;;;;;;;;;;26.98;27.05;99807.81;3170951;28;19927;-73
2023/10/08 06:59:31;;;;;;;;;;;;;;;27.15;26.18;99805.88;3164626;28;19950;-72
2023/10/08 07:01:04;;;;;;;;;;;;;;;27.13;26.07;99808.72;3165393;28;19924;-73
2023/10/08 07:02:36;;;;;;;;;;;;;;;27.30;26.24;99809.50;3168988;28;19924;-71
2023/10/08 07:04:11;;;;;;;;;;;;;;;27.53;25.76;99804.13;3164713;28;19924;-67
2023/10/08 07:05:53;;;;;;;;;;;;;;;27.66;25.16;99798.19;3165431;28;20011;-74
2023/10/08 07:07:28;;;;;;;;;;;;;;;27.79;25.22;99800.28;3171618;27;20438;-71
2023/10/08 07:09:00;;;;;;;;;;;;;;;27.83;24.49;99804.25;3168129;28;19928;-71
2023/10/08 07:10:34;;;;;;;;;;;;;;;27.91;24.73;99798.81;3166355;28;20049;-73
2023/10/08 07:12:13;;;;;;;;;;;;;;;28.06;24.30;99791.66;3172447;28;20440;-73
2023/10/08 07:13:44;;;;;;;;;;;;;;;28.38;23.79;99807.56;3171126;28;19928;-71
2023/10/08 07:15:20;;;;;;;;;;;;;;;28.51;23.55;99794.38;3171202;28;19970;-72
2023/10/08 07:16:54;;;;;;;;;;;;;;;29.01;23.55;99790.03;3170503;28;19924;-73
2023/10/08 07:18:26;;;;;;;;;;;;;;;29.38;23.45;99793.56;3170698;28;20046;-72
2023/10/08 07:19:57;;;;;;;;;;;;;;;29.55;22.93;99788.75;3158552;28;20191;-73
2023/10/08 07:21:37;;;;;;;;;;;;;;;29.74;22.40;99787.31;3170610;28;19924;-70
2023/10/08 07:23:18;;;;;;;;;;;;;;;29.71;22.20;99788.53;3169907;28;19924;-77
2023/10/08 07:24:51;;;;;;;;;;;;;;;29.87;21.97;99787.41;3167202;28;19986;-74
2023/10/08 07:26:26;;;;;;;;;;;;;;;30.09;21.77;99796.25;3169996;28;19984;-73
2023/10/08 07:27:56;;;;;;;;;;;;;;;30.02;20.82;99787.28;3170490;28;20313;-72
2023/10/08 07:29:28;;;;;;;;;;;;;;;29.70;20.49;99776.97;3169631;28;19931;-70
2023/10/08 07:30:59;;;;;;;;;;;;;;;29.39;20.30;99776.44;3170182;28;19931;-73
2023/10/08 07:32:31;;;;;;;;;;;;;;;29.23;20.42;99773.00;3171177;28;19923;-69
2023/10/08 07:34:15;;;;;;;;;;;;;;;29.06;20.38;99776.94;3165251;28;20440;-71
2023/10/08 07:36:04;;;;;;;;;;;;;;;29.17;20.63;99762.22;3159777;28;19931;-70
2023/10/08 07:37:35;;;;;;;;;;;;;;;29.10;19.98;99759.44;3157689;28;20032;-70
2023/10/08 07:39:15;;;;;;;;;;;;;;;29.15;20.04;99761.56;3166495;28;20412;-70
2023/10/08 07:40:45;;;;;;;;;;;;;;;29.29;20.25;99759.84;3167259;28;20014;-70
2023/10/08 07:42:18;;;;;;;;;;;;;;;29.41;20.03;99758.31;3170091;28;20146;-70
2023/10/08 07:43:55;;;;;;;;;;;;;;;29.49;20.01;99758.19;3170115;28;20004;-70
2023/10/08 07:45:26;;;;;;;;;;;;;;;29.54;19.88;99761.09;3168794;28;20324;-70
2023/10/08 07:46:59;;;;;;;;;;;;;;;29.46;19.81;99759.38;3170223;28;19928;-70
2023/10/08 07:48:30;;;;;;;;;;;;;;;29.36;19.63;99758.03;3170434;28;19935;-70
2023/10/08 07:50:11;;;;;;;;;;;;;;;29.38;19.94;99748.78;3167024;28;20429;-70
2023/10/08 07:51:50;;;;;;;;;;;;;;;29.46;19.74;99758.53;3170286;28;19947;-70
2023/10/08 07:53:22;;;;;;;;;;;;;;;29.82;19.97;99760.34;3170237;28;19924;-70
2023/10/08 07:54:53;;;;;;;;;;;;;;;30.17;19.76;99753.09;3169820;28;19988;-70
2023/10/08 07:56:24;;;;;;;;;;;;;;;30.14;19.33;99766.91;3170191;28;20003;-70
2023/10/08 07:57:57;;;;;;;;;;;;;;;30.09;19.13;99747.91;3169223;28;20302;-70
2023/10/08 07:59:29;;;;;;;;;;;;;;;30.14;19.28;99754.34;3170041;28;19930;-70
2023/10/08 08:01:06;;;;;;;;;;;;;;;30.10;19.02;99753.06;3170154;28;19927;-70
2023/10/08 08:02:38;;;;;;;;;;;;;;;30.04;19.22;99743.13;3170298;28;19924;-70
2023/10/08 08:04:14;;;;;;;;;;;;;;;29.94;18.96;99748.03;3170236;28;20345;-70
2023/10/08 08:05:46;;;;;;;;;;;;;;;29.82;19.34;99746.91;3163686;28;19924;-71
2023/10/08 08:07:18;;;;;;;;;;;;;;;29.75;19.07;99746.84;3164421;28;20040;-70
2023/10/08 08:08:51;;;;;;;;;;;;;;;29.74;19.27;99744.38;3170153;28;19923;-70
2023/10/08 08:10:23;;;;;;;;;;;;;;;29.80;19.33;99747.09;3169922;28;19924;-69
2023/10/08 08:11:57;;;;;;;;;;;;;;;29.73;19.36;99742.69;3169885;28;19999;-70
2023/10/08 08:13:29;;;;;;;;;;;;;;;29.67;18.91;99741.63;3170330;28;19947;-70
2023/10/08 08:15:03;;;;;;;;;;;;;;;29.68;19.20;99730.69;3172233;28;20384;-70
2023/10/08 08:16:36;;;;;;;;;;;;;;;29.66;18.92;99734.59;3172697;28;20029;-70
2023/10/08 08:18:07;;;;;;;;;;;;;;;29.53;19.01;99735.28;3172983;28;19928;-70
2023/10/08 08:19:39;;;;;;;;;;;;;;;29.57;19.26;99731.19;3172617;28;19927;-70
2023/10/08 08:21:14;;;;;;;;;;;;;;;29.53;19.21;99729.94;3172577;28;20007;-70
2023/10/08 08:22:49;;;;;;;;;;;;;;;29.59;19.14;99728.31;3172711;28;20085;-70
2023/10/08 08:24:35;;;;;;;;;;;;;;;29.76;19.55;99727.03;3172712;28;19981;-70
2023/10/08 08:26:11;;;;;;;;;;;;;;;29.85;19.01;99725.88;3172344;28;20449;-70
2023/10/08 08:27:43;;;;;;;;;;;;;;;29.74;18.82;99721.03;3172619;28;19928;-70
2023/10/08 08:29:16;;;;;;;;;;;;;;;29.70;18.87;99731.34;3172255;28;19928;-69